Time;durP1;ratioP1;P1;durP2;ratioP2;P2;SDS_P1;SDS_P2;PMS_P1;PMS_P2;Temp;Humidity;BMP_temperature;BMP_pressure;BME280_temperature;BME280_humidity;BME280_pressure;Samples;Min_cycle;Max_cycle;Signal;HPM_P1;HPM_P2
2022/10/15 00:00:50;;;;;;;42.97;18.48;;;;;;;12.66;79.37;100509.19;2064636;28;20030;-71
2022/10/15 00:01:53;;;;;;;36.45;18.55;;;;;;;12.68;79.54;100511.63;2057170;28;20450;-71
2022/10/15 00:03:01;;;;;;;37.13;17.45;;;;;;;12.71;79.55;100516.44;2064103;28;20049;-71
2022/10/15 00:04:04;;;;;;;37.17;17.45;;;;;;;12.74;79.53;100515.84;2058542;28;20046;-71
2022/10/15 00:05:08;;;;;;;36.25;17.30;;;;;;;12.75;79.59;100518.22;2065005;28;20053;-71
2022/10/15 00:06:12;;;;;;;39.05;17.90;;;;;;;12.79;79.32;100517.66;2065736;28;20042;-71
2022/10/15 00:07:20;;;;;;;39.65;18.13;;;;;;;12.80;79.30;100513.84;2066246;28;20553;-71
2022/10/15 00:08:28;;;;;;;36.95;17.73;;;;;;;12.82;79.02;100520.56;2073287;28;20482;-71
2022/10/15 00:09:36;;;;;;;40.90;18.48;;;;;;;12.79;79.25;100517.66;2072937;28;20509;-71
2022/10/15 00:10:44;;;;;;;41.88;18.40;;;;;;;12.79;79.06;100517.66;2072472;28;20060;-72
2022/10/15 00:11:48;;;;;;;43.28;17.83;;;;;;;12.80;79.01;100519.25;2064730;28;20038;-72
2022/10/15 00:12:51;;;;;;;42.78;18.52;;;;;;;12.81;79.37;100520.88;2049518;28;20066;-72
2022/10/15 00:14:00;;;;;;;39.30;17.98;;;;;;;12.80;79.18;100519.25;2056706;28;20045;-72
2022/10/15 00:15:02;;;;;;;42.42;17.25;;;;;;;12.81;78.88;100510.06;2038732;28;20044;-72
2022/10/15 00:16:15;;;;;;;45.63;18.92;;;;;;;12.82;78.88;100514.38;2065016;28;20050;-73
2022/10/15 00:17:18;;;;;;;36.83;17.58;;;;;;;12.82;79.01;100508.97;2062839;28;20522;-72
2022/10/15 00:18:26;;;;;;;42.90;17.40;;;;;;;12.84;78.95;100501.38;2064776;28;20049;-72
2022/10/15 00:19:29;;;;;;;37.80;16.77;;;;;;;12.85;79.04;100494.88;2056450;28;20039;-72
2022/10/15 00:20:31;;;;;;;38.35;17.38;;;;;;;12.87;79.00;100492.72;2048775;28;20483;-72
2022/10/15 00:21:33;;;;;;;42.65;17.77;;;;;;;12.88;79.01;100499.69;2056725;28;20043;-73
2022/10/15 00:22:37;;;;;;;42.22;18.15;;;;;;;12.88;79.00;100487.00;2065075;28;20045;-73
2022/10/15 00:23:39;;;;;;;43.20;18.05;;;;;;;12.88;78.90;100489.69;2065641;28;20122;-73
2022/10/15 00:24:45;;;;;;;38.60;16.80;;;;;;;12.89;79.02;100487.78;2057591;28;20039;-72
2022/10/15 00:25:59;;;;;;;38.72;17.55;;;;;;;12.89;78.84;100490.50;2059000;28;20035;-72
2022/10/15 00:27:01;;;;;;;44.92;17.73;;;;;;;12.89;78.99;100495.88;2073650;28;20034;-73
2022/10/15 00:28:04;;;;;;;35.45;17.75;;;;;;;12.90;78.88;100492.13;2065576;28;20026;-73
2022/10/15 00:29:07;;;;;;;38.28;17.38;;;;;;;12.92;78.88;100495.31;2057984;28;20035;-71
2022/10/15 00:30:14;;;;;;;42.80;19.48;;;;;;;12.93;78.77;100491.53;2048773;28;20452;-73
2022/10/15 00:31:19;;;;;;;50.63;18.05;;;;;;;12.93;78.80;100486.94;2058110;28;20042;-74
2022/10/15 00:32:24;;;;;;;37.47;17.40;;;;;;;12.92;78.72;100488.00;2056634;28;20733;-71
2022/10/15 00:33:27;;;;;;;44.72;17.67;;;;;;;12.93;78.68;100497.72;2057226;28;20560;-71
2022/10/15 00:34:29;;;;;;;37.30;17.45;;;;;;;12.93;78.69;100496.91;2056335;28;20034;-71
2022/10/15 00:35:34;;;;;;;36.03;17.85;;;;;;;12.94;78.56;100501.22;2048754;28;20039;-71
2022/10/15 00:36:37;;;;;;;37.35;17.63;;;;;;;12.92;78.52;100496.09;2056956;28;20046;-70
2022/10/15 00:37:45;;;;;;;37.25;17.23;;;;;;;12.89;78.36;100501.28;2056483;28;20051;-72
2022/10/15 00:38:48;;;;;;;39.42;17.23;;;;;;;12.83;78.30;100503.28;2057467;28;20035;-70
2022/10/15 00:39:50;;;;;;;35.67;18.27;;;;;;;12.76;78.48;100503.63;2064585;28;20037;-69
2022/10/15 00:40:52;;;;;;;39.85;18.73;;;;;;;12.72;78.54;100508.03;2056399;28;20042;-72
2022/10/15 00:41:59;;;;;;;32.45;17.45;;;;;;;12.65;78.83;100504.91;2056376;28;20077;-70
2022/10/15 00:43:12;;;;;;;39.80;17.52;;;;;;;12.59;78.75;100508.78;2063988;28;20132;-72
2022/10/15 00:44:28;;;;;;;36.88;18.55;;;;;;;12.52;79.14;100505.66;2066977;28;20035;-72
2022/10/15 00:45:33;;;;;;;38.22;18.33;;;;;;;12.46;79.30;100510.31;2062247;28;20038;-72
2022/10/15 00:46:43;;;;;;;41.15;17.95;;;;;;;12.41;79.54;100502.28;2066363;28;20348;-72
2022/10/15 00:47:52;;;;;;;47.67;19.10;;;;;;;12.37;79.76;100513.97;2065293;28;20030;-72
2022/10/15 00:49:10;;;;;;;45.72;19.40;;;;;;;12.35;80.31;100508.06;2073737;28;20041;-72
2022/10/15 00:50:18;;;;;;;38.05;17.70;;;;;;;12.30;80.55;100506.25;2057286;28;20038;-72
2022/10/15 00:51:23;;;;;;;37.97;17.48;;;;;;;12.27;80.68;100518.41;2067136;28;20114;-72
2022/10/15 00:52:48;;;;;;;41.25;18.58;;;;;;;12.24;80.80;100513.59;2064218;28;20058;-71
2022/10/15 00:53:52;;;;;;;43.55;19.23;;;;;;;12.23;81.01;100505.78;2065470;28;20034;-73
2022/10/15 00:55:01;;;;;;;46.40;17.92;;;;;;;12.19;80.85;100505.56;2065180;28;20038;-73
2022/10/15 00:56:06;;;;;;;45.70;19.20;;;;;;;12.16;81.26;100506.13;2059601;28;20038;-71
2022/10/15 00:57:12;;;;;;;39.58;18.20;;;;;;;12.12;81.43;100507.03;2064920;28;20290;-73
2022/10/15 00:58:20;;;;;;;43.63;18.70;;;;;;;12.06;81.51;100495.50;2065121;28;20050;-74
2022/10/15 00:59:25;;;;;;;39.75;17.80;;;;;;;12.04;81.89;100494.97;2058323;28;20047;-74
2022/10/15 01:00:28;;;;;;;36.67;18.17;;;;;;;12.01;81.70;100484.78;2060713;28;20047;-74
2022/10/15 01:01:33;;;;;;;41.13;19.13;;;;;;;11.98;82.24;100488.88;2065247;28;20053;-74
2022/10/15 01:02:38;;;;;;;38.42;18.67;;;;;;;11.96;82.28;100485.66;2057529;28;20514;-74
2022/10/15 01:03:44;;;;;;;42.40;17.60;;;;;;;11.98;82.20;100479.97;2056387;28;20507;-74
2022/10/15 01:04:50;;;;;;;35.22;18.02;;;;;;;11.99;82.46;100484.28;2056714;28;20039;-74
2022/10/15 01:05:55;;;;;;;39.47;17.70;;;;;;;12.01;82.66;100479.38;2049101;28;20039;-73
2022/10/15 01:06:57;;;;;;;34.25;17.00;;;;;;;12.05;82.67;100483.13;2040332;28;20432;-73
2022/10/15 01:08:01;;;;;;;41.60;18.27;;;;;;;12.06;82.62;100480.13;2048423;28;20036;-74
2022/10/15 01:09:06;;;;;;;43.53;17.98;;;;;;;12.10;82.24;100477.66;2056011;28;20042;-73
2022/10/15 01:10:16;;;;;;;35.27;17.43;;;;;;;12.13;82.74;100481.66;2057212;28;20042;-73
2022/10/15 01:11:48;;;;;;;43.22;18.00;;;;;;;12.14;82.40;100476.00;2057292;28;20309;-73
2022/10/15 01:13:13;;;;;;;36.05;17.88;;;;;;;12.18;82.36;100468.13;2064055;28;20375;-74
2022/10/15 01:14:37;;;;;;;35.55;17.50;;;;;;;12.17;82.24;100474.59;2051520;28;20042;-74
2022/10/15 01:15:57;;;;;;;42.70;17.27;;;;;;;12.18;82.34;100465.44;2063981;28;20049;-72
2022/10/15 01:17:21;;;;;;;44.78;18.35;;;;;;;12.18;82.14;100455.44;2064924;28;20049;-74
2022/10/15 01:18:28;;;;;;;36.97;16.65;;;;;;;12.17;82.06;100456.56;2059856;28;20042;-74
2022/10/15 01:19:45;;;;;;;36.72;17.50;;;;;;;12.17;82.18;100453.84;2073060;28;20050;-75
2022/10/15 01:21:22;;;;;;;;;;;;;;;12.18;82.20;100454.66;2070804;28;20056;-75
2022/10/15 01:22:42;;;;;;;45.53;16.70;;;;;;;12.17;82.13;100453.84;2056396;28;19920;-76
2022/10/15 01:24:07;;;;;;;36.10;15.98;;;;;;;12.19;82.07;100454.34;2075860;28;20587;-76
2022/10/15 01:25:22;;;;;;;40.85;17.52;;;;;;;12.18;82.29;100455.44;2069602;28;20041;-76
2022/10/15 01:27:10;;;;;;;40.88;17.15;;;;;;;12.20;82.48;100453.28;2073170;28;20053;-75
2022/10/15 01:28:30;;;;;;;40.78;17.98;;;;;;;12.23;82.33;100452.69;2046886;28;20058;-75
2022/10/15 01:29:44;;;;;;;43.42;17.23;;;;;;;12.24;82.24;100459.69;2059630;28;20034;-76
2022/10/15 01:30:52;;;;;;;35.28;16.13;;;;;;;12.23;82.39;100451.88;2065591;28;20042;-75
2022/10/15 01:31:57;;;;;;;40.40;17.45;;;;;;;12.22;82.24;100448.38;2057267;28;20564;-74
2022/10/15 01:33:16;;;;;;;36.03;17.23;;;;;;;12.21;82.35;100449.47;2072384;28;20049;-74
2022/10/15 01:34:52;;;;;;;38.75;18.17;;;;;;;12.18;82.27;100455.44;2067832;28;20402;-74
2022/10/15 01:36:23;;;;;;;40.75;17.27;;;;;;;12.15;82.24;100456.03;2059148;28;20043;-74
2022/10/15 01:37:32;;;;;;;38.55;18.25;;;;;;;12.13;82.55;100447.44;2060797;28;20398;-74
2022/10/15 01:38:50;;;;;;;36.88;16.95;;;;;;;12.12;82.62;100445.84;2049462;28;20459;-74
2022/10/15 01:39:56;;;;;;;;;;;;;;;12.12;82.61;100445.03;2053805;28;20043;-73
2022/10/15 01:41:03;;;;;;;47.17;17.92;;;;;;;12.12;82.74;100442.34;2065702;28;19914;-74
2022/10/15 01:42:16;;;;;;;38.08;17.73;;;;;;;12.10;82.71;100448.00;2064144;28;20050;-74
2022/10/15 01:43:29;;;;;;;40.83;18.80;;;;;;;12.10;82.84;100445.31;2057039;28;20045;-74
2022/10/15 01:45:10;;;;;;;38.75;17.50;;;;;;;12.05;82.88;100445.41;2054963;28;20047;-74
2022/10/15 01:46:38;;;;;;;42.58;18.08;;;;;;;11.97;82.77;100436.06;2053963;28;20051;-74
2022/10/15 01:47:55;;;;;;;42.85;17.88;;;;;;;11.98;83.12;100442.25;2059789;28;20050;-73
2022/10/15 01:49:04;;;;;;;43.17;18.70;;;;;;;11.97;82.90;100443.34;2058103;28;20062;-73
2022/10/15 01:50:09;;;;;;;47.08;19.33;;;;;;;11.95;82.84;100440.97;2063957;28;20509;-74
2022/10/15 01:51:14;;;;;;;44.05;19.15;;;;;;;11.95;83.25;100437.47;2055719;28;20039;-73
2022/10/15 01:52:22;;;;;;;41.40;17.67;;;;;;;11.97;83.31;100440.66;2055903;28;20046;-73
2022/10/15 01:53:26;;;;;;;39.65;18.30;;;;;;;11.98;83.46;100444.94;2065046;28;20049;-73
2022/10/15 01:54:30;;;;;;;39.67;18.67;;;;;;;11.99;83.14;100441.97;2064109;28;20042;-74
2022/10/15 01:55:41;;;;;;;41.35;18.65;;;;;;;12.02;83.44;100435.19;2064524;28;20411;-74
2022/10/15 01:56:48;;;;;;;38.55;17.15;;;;;;;12.05;83.53;100432.72;2065102;28;20049;-74
2022/10/15 01:57:57;;;;;;;42.30;18.05;;;;;;;12.10;83.13;100436.44;2066226;28;20038;-74
2022/10/15 01:59:01;;;;;;;47.13;18.80;;;;;;;12.10;83.31;100434.53;2064595;28;20034;-74
2022/10/15 02:00:08;;;;;;;42.35;18.65;;;;;;;12.10;83.10;100434.53;2057513;28;20043;-74
2022/10/15 02:01:17;;;;;;;39.45;18.45;;;;;;;12.08;83.09;100439.44;2063789;28;20053;-73
2022/10/15 02:02:22;;;;;;;42.28;19.05;;;;;;;12.03;83.04;100437.59;2065277;28;20042;-74
2022/10/15 02:03:31;;;;;;;36.75;18.15;;;;;;;12.02;83.41;100435.19;2072702;28;20050;-74
2022/10/15 02:04:40;;;;;;;42.05;17.48;;;;;;;12.02;83.42;100427.91;2072453;28;20461;-73
2022/10/15 02:05:50;;;;;;;38.83;18.45;;;;;;;12.03;83.36;100432.19;2071860;28;20498;-73
2022/10/15 02:07:17;;;;;;;42.88;18.75;;;;;;;12.02;83.50;100433.31;2072778;28;20062;-74
2022/10/15 02:09:00;;;;;;;37.50;17.98;;;;;;;12.05;83.67;100440.00;2064213;28;20054;-73
2022/10/15 02:10:23;;;;;;;37.80;18.05;;;;;;;12.06;83.54;100431.63;2040970;29;20051;-73
2022/10/15 02:11:35;;;;;;;42.17;18.02;;;;;;;12.08;83.49;100434.03;2043857;29;20055;-74
2022/10/15 02:13:02;;;;;;;38.22;17.23;;;;;;;12.09;83.38;100430.25;2045693;28;20055;-74
2022/10/15 02:14:14;;;;;;;42.60;16.60;;;;;;;12.02;82.93;100422.53;2057440;28;20521;-74
2022/10/15 02:15:22;;;;;;;43.80;18.58;;;;;;;11.98;83.19;100420.69;2057428;28;20039;-74
2022/10/15 02:16:33;;;;;;;43.25;19.35;;;;;;;11.90;83.49;100424.06;2063493;28;20045;-75
2022/10/15 02:17:48;;;;;;;41.20;17.90;;;;;;;11.86;83.63;100428.44;2064912;28;20042;-74
2022/10/15 02:19:11;;;;;;;44.03;18.77;;;;;;;11.85;83.97;100422.22;2066856;28;20054;-74
2022/10/15 02:20:58;;;;;;;42.97;18.20;;;;;;;11.88;83.84;100423.53;2064537;28;20047;-75
2022/10/15 02:22:23;;;;;;;36.17;17.55;;;;;;;11.88;83.98;100424.31;2061513;28;20038;-73
2022/10/15 02:23:45;;;;;;;40.85;18.13;;;;;;;11.88;84.04;100423.53;2074776;28;20665;-74
2022/10/15 02:24:48;;;;;;;41.42;18.75;;;;;;;11.87;84.02;100424.63;2060845;28;20394;-74
2022/10/15 02:26:13;;;;;;;48.45;19.15;;;;;;;11.87;83.95;100424.63;2056172;28;20042;-74
2022/10/15 02:27:17;;;;;;;44.45;19.35;;;;;;;11.87;84.30;100419.25;2058792;28;20046;-74
2022/10/15 02:28:28;;;;;;;39.83;18.88;;;;;;;11.88;84.31;100418.94;2056569;28;20656;-75
2022/10/15 02:29:37;;;;;;;42.08;19.27;;;;;;;11.92;84.62;100419.19;2065109;28;20049;-75
2022/10/15 02:30:46;;;;;;;;;;;;;;;11.94;84.71;100416.97;2063917;28;20046;-75
2022/10/15 02:31:54;;;;;;;38.53;17.90;;;;;;;11.94;84.72;100416.97;2073139;28;19924;-75
2022/10/15 02:32:59;;;;;;;40.58;19.48;;;;;;;11.94;84.46;100416.97;2070707;28;20038;-74
2022/10/15 02:34:07;;;;;;;43.13;17.75;;;;;;;11.90;84.33;100416.75;2064350;28;20041;-75
2022/10/15 02:35:12;;;;;;;46.17;19.55;;;;;;;11.90;84.76;100414.06;2055955;28;20034;-75
2022/10/15 02:36:21;;;;;;;39.95;18.75;;;;;;;11.84;84.23;100412.50;2050179;28;20039;-75
2022/10/15 02:37:26;;;;;;;48.15;20.95;;;;;;;11.85;84.47;100413.34;2065641;28;20433;-74
2022/10/15 02:38:34;;;;;;;49.38;20.40;;;;;;;11.82;84.27;100420.06;2064532;28;20054;-75
2022/10/15 02:39:39;;;;;;;42.95;19.63;;;;;;;11.83;84.64;100422.47;2064443;28;20050;-75
2022/10/15 02:40:44;;;;;;;46.17;20.92;;;;;;;11.83;84.55;100424.38;2064837;28;20065;-74
2022/10/15 02:42:09;;;;;;;48.45;20.88;;;;;;;11.84;84.59;100417.91;2074043;28;20053;-74
2022/10/15 02:43:18;;;;;;;40.28;18.77;;;;;;;11.85;84.69;100413.34;2079801;28;20042;-75
2022/10/15 02:44:20;;;;;;;45.67;19.13;;;;;;;11.86;84.82;100412.25;2074488;28;20044;-73
2022/10/15 02:45:22;;;;;;;43.35;18.95;;;;;;;11.84;84.81;100409.81;2050288;28;20042;-74
2022/10/15 02:46:25;;;;;;;45.40;19.70;;;;;;;11.84;85.10;100412.50;2057719;28;20039;-74
2022/10/15 02:47:28;;;;;;;44.00;19.63;;;;;;;11.80;84.74;100417.69;2066191;28;20449;-74
2022/10/15 02:48:35;;;;;;;42.20;19.85;;;;;;;11.81;85.11;100407.69;2066413;28;20038;-74
2022/10/15 02:49:39;;;;;;;48.65;20.40;;;;;;;11.78;85.07;100408.28;2058963;28;20400;-74
2022/10/15 02:50:42;;;;;;;47.80;20.75;;;;;;;11.72;85.11;100409.44;2066807;28;20037;-74
2022/10/15 02:51:47;;;;;;;46.08;19.80;;;;;;;11.74;85.18;100412.66;2066892;28;20038;-73
2022/10/15 02:52:55;;;;;;;40.70;19.17;;;;;;;11.77;85.35;100415.56;2074900;28;20041;-74
2022/10/15 02:54:00;;;;;;;40.67;19.33;;;;;;;11.81;85.68;100411.19;2065997;28;20130;-74
2022/10/15 02:55:06;;;;;;;39.05;19.10;;;;;;;11.85;85.44;100407.94;2058689;28;20046;-74
2022/10/15 02:56:09;;;;;;;43.35;19.13;;;;;;;11.89;85.57;100409.00;2065303;28;20030;-74
2022/10/15 02:57:12;;;;;;;44.22;18.63;;;;;;;11.87;85.51;100401.19;2057562;28;20034;-74
2022/10/15 02:58:20;;;;;;;43.60;19.52;;;;;;;11.88;85.62;100407.38;2057043;28;20046;-74
2022/10/15 02:59:25;;;;;;;46.28;19.70;;;;;;;11.82;85.50;100404.72;2058728;28;20038;-74
2022/10/15 03:00:34;;;;;;;44.50;19.33;;;;;;;11.77;85.25;100402.09;2073427;28;20409;-73
2022/10/15 03:01:39;;;;;;;46.35;20.15;;;;;;;11.75;85.78;100398.88;2064862;28;20054;-73
2022/10/15 03:02:42;;;;;;;49.08;19.88;;;;;;;11.71;85.58;100403.25;2072835;28;20046;-72
2022/10/15 03:03:47;;;;;;;48.33;20.00;;;;;;;11.69;86.08;100400.03;2073342;28;20414;-73
2022/10/15 03:04:54;;;;;;;50.53;21.02;;;;;;;11.70;86.17;100404.34;2073304;28;20034;-73
2022/10/15 03:06:04;;;;;;;43.55;19.70;;;;;;;11.71;85.93;100402.47;2066422;28;20030;-73
2022/10/15 03:07:07;;;;;;;48.53;21.38;;;;;;;11.66;86.25;100395.22;2065128;28;20042;-72
2022/10/15 03:08:12;;;;;;;39.30;19.60;;;;;;;11.67;86.25;100399.53;2065338;28;20042;-73
2022/10/15 03:09:15;;;;;;;42.20;20.95;;;;;;;11.68;86.00;100386.88;2065068;28;20034;-73
2022/10/15 03:10:20;;;;;;;48.03;20.27;;;;;;;11.68;86.29;100401.13;2057199;28;20046;-74
2022/10/15 03:11:27;;;;;;;47.35;20.02;;;;;;;11.65;86.13;100399.03;2058556;28;20039;-74
2022/10/15 03:12:35;;;;;;;48.22;21.98;;;;;;;11.62;86.24;100399.59;2067141;28;20035;-74
2022/10/15 03:13:42;;;;;;;45.88;21.30;;;;;;;11.60;86.53;100391.00;2066395;28;20049;-73
2022/10/15 03:14:44;;;;;;;45.25;19.98;;;;;;;11.60;86.40;100402.59;2058336;28;20041;-73
2022/10/15 03:15:51;;;;;;;50.10;21.45;;;;;;;11.59;86.65;100405.56;2059031;28;20042;-73
2022/10/15 03:16:58;;;;;;;50.53;21.35;;;;;;;11.60;86.70;100399.06;2071583;28;20042;-73
2022/10/15 03:18:03;;;;;;;46.60;21.05;;;;;;;11.59;86.84;100397.47;2058144;28;20039;-73
2022/10/15 03:19:06;;;;;;;48.22;21.95;;;;;;;11.56;86.90;100390.78;2058082;28;20050;-73
2022/10/15 03:20:12;;;;;;;47.78;21.08;;;;;;;11.57;86.97;100392.41;2066288;28;20041;-73
2022/10/15 03:21:19;;;;;;;50.08;22.63;;;;;;;11.58;87.14;100387.81;2065869;28;20050;-72
2022/10/15 03:22:22;;;;;;;49.65;20.92;;;;;;;11.57;86.88;100388.91;2050007;29;20043;-72
2022/10/15 03:23:30;;;;;;;49.00;22.17;;;;;;;11.58;87.05;100387.81;2052131;28;20047;-73
2022/10/15 03:24:50;;;;;;;49.47;21.13;;;;;;;11.55;87.04;100386.50;2063161;28;20053;-73
2022/10/15 03:26:01;;;;;;;46.30;21.17;;;;;;;11.55;87.50;100386.50;2059968;28;20039;-73
2022/10/15 03:27:07;;;;;;;53.83;22.40;;;;;;;11.54;87.23;100390.28;2064904;28;20050;-73
2022/10/15 03:28:11;;;;;;;53.22;22.25;;;;;;;11.48;87.66;100387.94;2058670;28;20047;-73
2022/10/15 03:29:19;;;;;;;45.35;21.05;;;;;;;11.47;87.49;100381.72;2066032;28;20067;-73
2022/10/15 03:30:34;;;;;;;51.35;21.05;;;;;;;11.49;87.45;100379.56;2050982;28;20051;-74
2022/10/15 03:31:41;;;;;;;48.72;21.35;;;;;;;11.51;87.86;100379.28;2052751;28;20045;-73
2022/10/15 03:32:51;;;;;;;53.38;22.15;;;;;;;11.51;87.74;100382.78;2064978;28;20030;-73
2022/10/15 03:33:56;;;;;;;44.92;20.65;;;;;;;11.49;87.98;100384.94;2064981;28;20030;-72
2022/10/15 03:35:01;;;;;;;53.85;22.60;;;;;;;11.40;87.95;100381.28;2064836;28;20456;-73
2022/10/15 03:36:11;;;;;;;57.72;22.38;;;;;;;11.41;87.74;100388.28;2057616;28;20035;-73
2022/10/15 03:37:16;;;;;;;47.20;21.98;;;;;;;11.41;88.13;100377.50;2057788;28;20537;-72
2022/10/15 03:38:21;;;;;;;48.28;21.10;;;;;;;11.42;88.40;100383.72;2064890;28;20056;-73
2022/10/15 03:39:28;;;;;;;54.05;24.35;;;;;;;11.39;88.41;100381.59;2072932;28;20038;-73
2022/10/15 03:40:36;;;;;;;54.40;23.48;;;;;;;11.37;88.60;100379.19;2056115;28;20597;-73
2022/10/15 03:41:55;;;;;;;53.38;22.45;;;;;;;11.30;88.73;100376.84;2054618;28;20096;-73
2022/10/15 03:43:08;;;;;;;52.88;22.98;;;;;;;11.25;88.64;100368.81;2061215;28;20057;-73
2022/10/15 03:44:13;;;;;;;56.42;24.00;;;;;;;11.25;89.17;100371.50;2065943;28;20537;-73
2022/10/15 03:45:25;;;;;;;54.53;22.63;;;;;;;11.20;88.76;100370.78;2065661;28;20046;-72
2022/10/15 03:46:47;;;;;;;50.90;22.52;;;;;;;11.21;89.06;100373.19;2071685;28;20405;-73
2022/10/15 03:47:52;;;;;;;54.17;23.05;;;;;;;11.20;89.50;100374.28;2057531;28;20027;-74
2022/10/15 03:48:54;;;;;;;44.78;22.23;;;;;;;11.23;89.07;100371.00;2058517;28;20042;-73
2022/10/15 03:49:59;;;;;;;50.53;22.52;;;;;;;11.25;89.19;100374.19;2058433;28;20035;-73
2022/10/15 03:51:01;;;;;;;53.00;22.75;;;;;;;11.26;89.49;100370.44;2066351;28;20035;-73
2022/10/15 03:52:06;;;;;;;48.45;22.58;;;;;;;11.30;89.54;100376.03;2065680;28;20050;-73
2022/10/15 03:53:10;;;;;;;47.72;22.73;;;;;;;11.30;89.76;100370.66;2074160;28;20572;-73
2022/10/15 03:54:17;;;;;;;48.28;21.45;;;;;;;11.29;89.41;100367.16;2066126;28;20042;-74
2022/10/15 03:55:26;;;;;;;47.03;20.98;;;;;;;11.31;89.16;100370.34;2066666;28;20042;-74
2022/10/15 03:56:37;;;;;;;51.05;21.88;;;;;;;11.30;89.61;100376.84;2074384;28;20049;-73
2022/10/15 03:58:06;;;;;;;47.30;20.92;;;;;;;11.30;89.51;100366.06;2069924;28;20057;-73
2022/10/15 03:59:16;;;;;;;48.03;21.85;;;;;;;11.29;89.37;100361.78;2066718;28;20038;-73
2022/10/15 04:00:26;;;;;;;46.75;21.00;;;;;;;11.29;89.45;100363.69;2066626;28;20050;-75
2022/10/15 04:01:39;;;;;;;55.13;21.65;;;;;;;11.28;89.70;100357.47;2073965;28;20038;-73
2022/10/15 04:02:43;;;;;;;56.05;21.77;;;;;;;11.29;89.78;100359.09;2065705;28;20054;-72
2022/10/15 04:03:58;;;;;;;46.63;21.25;;;;;;;11.30;89.14;100360.69;2060065;28;20391;-72
2022/10/15 04:05:02;;;;;;;42.83;19.63;;;;;;;11.33;89.54;100346.66;2066554;28;20371;-73
2022/10/15 04:06:12;;;;;;;50.25;21.70;;;;;;;11.33;89.62;100346.66;2073671;28;20037;-73
2022/10/15 04:07:15;;;;;;;51.90;21.92;;;;;;;11.31;89.31;100339.94;2058632;28;20054;-73
2022/10/15 04:08:20;;;;;;;47.38;20.90;;;;;;;11.31;89.53;100332.69;2065352;28;20110;-72
2022/10/15 04:09:31;;;;;;;47.47;21.42;;;;;;;11.28;88.99;100337.84;2064575;28;20030;-74
2022/10/15 04:10:58;;;;;;;43.53;21.02;;;;;;;11.28;89.43;100335.94;2068744;28;20045;-73
2022/10/15 04:12:03;;;;;;;44.10;20.10;;;;;;;11.26;89.28;100331.97;2071915;28;20045;-73
2022/10/15 04:13:08;;;;;;;48.05;20.70;;;;;;;11.28;89.44;100332.44;2065346;28;20038;-72
2022/10/15 04:14:18;;;;;;;46.75;20.17;;;;;;;11.29;89.31;100326.00;2056987;28;20042;-72
2022/10/15 04:15:22;;;;;;;49.00;20.25;;;;;;;11.28;89.42;100327.06;2058268;28;20562;-72
2022/10/15 04:16:31;;;;;;;47.63;22.33;;;;;;;11.24;89.27;100317.97;2065865;28;20045;-73
2022/10/15 04:17:40;;;;;;;47.05;19.60;;;;;;;11.24;89.27;100331.44;2065861;28;20046;-74
2022/10/15 04:18:45;;;;;;;47.67;20.98;;;;;;;11.22;89.15;100326.31;2064754;28;20042;-73
2022/10/15 04:19:50;;;;;;;50.00;21.50;;;;;;;11.22;89.29;100329.03;2064389;28;20039;-72
2022/10/15 04:20:58;;;;;;;53.50;20.77;;;;;;;11.23;89.08;100319.88;2066758;28;20038;-72
2022/10/15 04:22:01;;;;;;;47.22;20.98;;;;;;;11.22;89.47;100318.25;2064790;28;20046;-74
2022/10/15 04:23:10;;;;;;;51.25;20.48;;;;;;;11.24;89.55;100318.78;2051184;28;20443;-75
2022/10/15 04:24:15;;;;;;;46.60;21.75;;;;;;;11.24;89.41;100324.16;2058616;28;20047;-75
2022/10/15 04:25:20;;;;;;;52.65;21.20;;;;;;;11.27;89.14;100326.28;2058397;28;20480;-74
2022/10/15 04:26:24;;;;;;;52.47;21.17;;;;;;;11.29;89.24;100326.00;2074306;28;20042;-74
2022/10/15 04:27:27;;;;;;;53.38;22.58;;;;;;;11.31;89.31;100323.81;2072762;28;20046;-75
2022/10/15 04:28:42;;;;;;;47.45;21.55;;;;;;;11.29;88.98;100318.72;2073154;28;20466;-74
2022/10/15 04:29:47;;;;;;;49.08;21.55;;;;;;;11.30;89.39;100323.00;2073533;28;20036;-74
2022/10/15 04:30:50;;;;;;;47.80;21.10;;;;;;;11.28;89.21;100314.41;2066403;28;20045;-74
2022/10/15 04:31:57;;;;;;;47.83;20.75;;;;;;;11.29;89.23;100315.22;2057151;28;20411;-74
2022/10/15 04:32:59;;;;;;;55.08;21.48;;;;;;;11.28;88.96;100317.09;2057700;28;20037;-74
2022/10/15 04:34:05;;;;;;;50.63;21.63;;;;;;;11.28;88.93;100317.09;2049559;28;20047;-76
2022/10/15 04:35:07;;;;;;;50.15;22.33;;;;;;;11.27;88.72;100317.41;2066259;28;20042;-73
2022/10/15 04:36:36;;;;;;;56.80;21.25;;;;;;;11.27;89.28;100315.50;2061891;28;20530;-73
2022/10/15 04:37:43;;;;;;;53.25;21.83;;;;;;;11.26;88.99;100311.22;2066379;28;20065;-76
2022/10/15 04:38:48;;;;;;;51.38;21.40;;;;;;;11.24;89.05;100318.78;2065825;28;20034;-75
2022/10/15 04:40:00;;;;;;;49.55;22.25;;;;;;;11.23;88.56;100305.63;2058423;28;20054;-76
2022/10/15 04:41:04;;;;;;;51.03;20.92;;;;;;;11.16;88.57;100308.66;2058231;28;20165;-76
2022/10/15 04:42:32;;;;;;;51.00;21.40;;;;;;;11.10;88.86;100307.94;2065147;28;20076;-76
2022/10/15 04:43:37;;;;;;;49.50;22.70;;;;;;;11.10;89.37;100309.81;2056418;28;20046;-76
2022/10/15 04:44:43;;;;;;;50.33;21.73;;;;;;;11.07;89.50;100308.50;2057818;28;20046;-76
2022/10/15 04:45:45;;;;;;;42.13;21.35;;;;;;;11.08;89.60;100303.91;2063966;28;20034;-76
2022/10/15 04:46:51;;;;;;;46.67;22.05;;;;;;;11.02;89.52;100305.84;2040800;28;20042;-76
2022/10/15 04:48:23;;;;;;;49.50;21.63;;;;;;;11.01;89.75;100304.28;2060834;28;20045;-75
2022/10/15 04:49:28;;;;;;;48.20;21.52;;;;;;;11.01;89.76;100309.66;2065039;28;20061;-75
2022/10/15 04:50:36;;;;;;;51.08;22.58;;;;;;;11.01;89.74;100298.88;2056332;28;20061;-75
2022/10/15 04:51:55;;;;;;;52.85;21.48;;;;;;;10.99;90.18;100300.25;2053990;28;20301;-75
2022/10/15 04:53:05;;;;;;;51.42;22.17;;;;;;;10.97;90.13;100303.25;2055052;28;20062;-76
2022/10/15 04:54:17;;;;;;;51.00;22.50;;;;;;;10.99;89.75;100300.25;2064965;28;20517;-76
2022/10/15 04:55:34;;;;;;;53.28;22.02;;;;;;;10.99;89.90;100292.19;2056861;28;20035;-76
2022/10/15 04:56:39;;;;;;;48.63;22.13;;;;;;;11.00;90.03;100299.16;2058673;28;20503;-76
2022/10/15 04:57:46;;;;;;;49.22;21.65;;;;;;;11.01;90.10;100292.72;2065623;28;20045;-76
2022/10/15 04:58:57;;;;;;;53.92;23.25;;;;;;;11.00;89.96;100291.91;2058676;28;20039;-76
2022/10/15 05:00:03;;;;;;;54.15;22.92;;;;;;;11.02;89.92;100294.31;2050314;28;20513;-76
2022/10/15 05:01:13;;;;;;;55.05;24.02;;;;;;;11.01;90.11;100285.44;2058847;28;20039;-75
2022/10/15 05:02:32;;;;;;;52.97;22.38;;;;;;;11.04;90.06;100287.56;2068562;28;20034;-75
2022/10/15 05:04:08;;;;;;;51.40;22.05;;;;;;;11.04;89.99;100281.38;2069593;28;20482;-73
2022/10/15 05:05:10;;;;;;;53.70;22.77;;;;;;;11.05;89.57;100285.66;2065154;28;20030;-73
2022/10/15 05:06:23;;;;;;;50.80;22.10;;;;;;;11.02;90.06;100284.34;2060088;28;20458;-73
2022/10/15 05:07:33;;;;;;;49.08;21.50;;;;;;;11.03;90.14;100285.13;2073407;28;20063;-74
2022/10/15 05:08:40;;;;;;;55.25;23.42;;;;;;;11.00;90.09;100291.91;2065847;28;20038;-74
2022/10/15 05:09:52;;;;;;;51.92;22.35;;;;;;;11.00;90.28;100283.03;2071208;28;20038;-73
2022/10/15 05:10:57;;;;;;;54.10;23.13;;;;;;;10.99;90.00;100279.53;2048771;28;20043;-74
2022/10/15 05:12:00;;;;;;;53.63;22.85;;;;;;;11.00;90.31;100294.59;2055939;28;20050;-74
2022/10/15 05:13:06;;;;;;;48.97;22.65;;;;;;;11.01;89.98;100287.31;2071429;28;20037;-73
2022/10/15 05:14:14;;;;;;;51.90;23.88;;;;;;;11.04;90.47;100281.38;2071150;28;20292;-73
2022/10/15 05:15:17;;;;;;;56.72;23.63;;;;;;;11.05;90.00;100277.59;2063122;28;20108;-73
2022/10/15 05:16:23;;;;;;;56.65;24.10;;;;;;;11.02;89.94;100278.16;2063207;28;20945;-73